sensor_id;sensor_type;location;lat;lon;timestamp;P1;durP1;ratioP1;P2;durP2;ratioP2
83354;SDS011;73271;50.882;5.984;2023-12-20T00:02:19;42.87;;;15.97;;
83354;SDS011;73271;50.882;5.984;2023-12-20T00:04:44;41.03;;;16.67;;
83354;SDS011;73271;50.882;5.984;2023-12-20T00:07:10;42.13;;;16.03;;
83354;SDS011;73271;50.882;5.984;2023-12-20T00:09:35;41.88;;;14.40;;
83354;SDS011;73271;50.882;5.984;2023-12-20T00:12:01;33.27;;;13.60;;
83354;SDS011;73271;50.882;5.984;2023-12-20T00:14:26;38.77;;;15.53;;
83354;SDS011;73271;50.882;5.984;2023-12-20T00:16:52;37.83;;;15.13;;
83354;SDS011;73271;50.882;5.984;2023-12-20T00:19:17;35.67;;;14.02;;
83354;SDS011;73271;50.882;5.984;2023-12-20T00:21:42;37.43;;;15.37;;
83354;SDS011;73271;50.882;5.984;2023-12-20T00:24:08;30.27;;;13.20;;
83354;SDS011;73271;50.882;5.984;2023-12-20T00:26:33;32.93;;;14.30;;
83354;SDS011;73271;50.882;5.984;2023-12-20T00:28:59;30.37;;;13.27;;
83354;SDS011;73271;50.882;5.984;2023-12-20T00:31:24;34.53;;;14.13;;
83354;SDS011;73271;50.882;5.984;2023-12-20T00:33:50;25.37;;;10.47;;
83354;SDS011;73271;50.882;5.984;2023-12-20T00:36:15;31.70;;;12.70;;
83354;SDS011;73271;50.882;5.984;2023-12-20T00:38:41;26.95;;;11.10;;
83354;SDS011;73271;50.882;5.984;2023-12-20T00:41:06;24.77;;;12.87;;
83354;SDS011;73271;50.882;5.984;2023-12-20T00:43:31;19.63;;;8.47;;
83354;SDS011;73271;50.882;5.984;2023-12-20T00:45:57;21.20;;;8.30;;
83354;SDS011;73271;50.882;5.984;2023-12-20T00:48:22;18.30;;;7.50;;
83354;SDS011;73271;50.882;5.984;2023-12-20T00:50:48;15.23;;;4.50;;
83354;SDS011;73271;50.882;5.984;2023-12-20T00:53:13;11.67;;;3.57;;
83354;SDS011;73271;50.882;5.984;2023-12-20T00:55:38;9.80;;;2.13;;
83354;SDS011;73271;50.882;5.984;2023-12-20T00:58:05;8.20;;;2.20;;
83354;SDS011;73271;50.882;5.984;2023-12-20T01:00:30;12.13;;;2.53;;
83354;SDS011;73271;50.882;5.984;2023-12-20T01:02:56;9.93;;;2.20;;
83354;SDS011;73271;50.882;5.984;2023-12-20T01:05:21;11.10;;;2.15;;
83354;SDS011;73271;50.882;5.984;2023-12-20T01:07:50;11.07;;;1.87;;
83354;SDS011;73271;50.882;5.984;2023-12-20T01:10:15;7.85;;;2.05;;
83354;SDS011;73271;50.882;5.984;2023-12-20T01:12:40;7.90;;;1.80;;
83354;SDS011;73271;50.882;5.984;2023-12-20T01:15:06;12.97;;;2.30;;
83354;SDS011;73271;50.882;5.984;2023-12-20T01:17:32;13.70;;;2.20;;
83354;SDS011;73271;50.882;5.984;2023-12-20T01:19:57;9.20;;;2.50;;
83354;SDS011;73271;50.882;5.984;2023-12-20T01:22:23;10.50;;;2.40;;
83354;SDS011;73271;50.882;5.984;2023-12-20T01:24:48;9.10;;;2.75;;
83354;SDS011;73271;50.882;5.984;2023-12-20T01:27:14;10.27;;;2.60;;
83354;SDS011;73271;50.882;5.984;2023-12-20T01:29:39;13.80;;;3.47;;
83354;SDS011;73271;50.882;5.984;2023-12-20T01:32:05;10.32;;;2.65;;
83354;SDS011;73271;50.882;5.984;2023-12-20T01:34:31;11.47;;;3.00;;
83354;SDS011;73271;50.882;5.984;2023-12-20T01:36:56;15.67;;;3.43;;
83354;SDS011;73271;50.882;5.984;2023-12-20T01:39:22;9.80;;;3.88;;
83354;SDS011;73271;50.882;5.984;2023-12-20T01:41:47;14.57;;;3.37;;
83354;SDS011;73271;50.882;5.984;2023-12-20T01:44:12;14.50;;;3.73;;
83354;SDS011;73271;50.882;5.984;2023-12-20T01:46:38;13.30;;;3.57;;
83354;SDS011;73271;50.882;5.984;2023-12-20T01:49:03;14.27;;;3.63;;
83354;SDS011;73271;50.882;5.984;2023-12-20T01:51:29;11.13;;;3.40;;
83354;SDS011;73271;50.882;5.984;2023-12-20T01:53:57;12.73;;;3.90;;
83354;SDS011;73271;50.882;5.984;2023-12-20T01:56:25;10.13;;;2.73;;
83354;SDS011;73271;50.882;5.984;2023-12-20T01:58:52;12.48;;;2.90;;
83354;SDS011;73271;50.882;5.984;2023-12-20T02:01:18;10.10;;;3.05;;
83354;SDS011;73271;50.882;5.984;2023-12-20T02:03:44;13.87;;;3.83;;
83354;SDS011;73271;50.882;5.984;2023-12-20T02:06:10;10.40;;;2.83;;
83354;SDS011;73271;50.882;5.984;2023-12-20T02:08:36;16.52;;;2.80;;
83354;SDS011;73271;50.882;5.984;2023-12-20T02:11:02;14.70;;;2.70;;
83354;SDS011;73271;50.882;5.984;2023-12-20T02:13:27;11.70;;;2.95;;
83354;SDS011;73271;50.882;5.984;2023-12-20T02:15:53;12.17;;;2.37;;
83354;SDS011;73271;50.882;5.984;2023-12-20T02:18:19;9.98;;;2.60;;
83354;SDS011;73271;50.882;5.984;2023-12-20T02:20:45;12.87;;;2.70;;
83354;SDS011;73271;50.882;5.984;2023-12-20T02:23:10;13.77;;;2.50;;
83354;SDS011;73271;50.882;5.984;2023-12-20T02:25:36;9.67;;;2.50;;
83354;SDS011;73271;50.882;5.984;2023-12-20T02:28:02;12.48;;;2.42;;
83354;SDS011;73271;50.882;5.984;2023-12-20T02:30:28;9.70;;;2.40;;
83354;SDS011;73271;50.882;5.984;2023-12-20T02:32:54;10.77;;;2.17;;
83354;SDS011;73271;50.882;5.984;2023-12-20T02:35:19;9.88;;;2.85;;
83354;SDS011;73271;50.882;5.984;2023-12-20T02:37:45;15.40;;;3.30;;
83354;SDS011;73271;50.882;5.984;2023-12-20T02:40:10;9.93;;;2.53;;
83354;SDS011;73271;50.882;5.984;2023-12-20T02:42:36;15.37;;;3.53;;
83354;SDS011;73271;50.882;5.984;2023-12-20T02:45:02;10.00;;;3.00;;
83354;SDS011;73271;50.882;5.984;2023-12-20T02:47:27;10.87;;;2.80;;
83354;SDS011;73271;50.882;5.984;2023-12-20T02:49:54;13.02;;;3.33;;
83354;SDS011;73271;50.882;5.984;2023-12-20T02:52:20;10.63;;;2.93;;
83354;SDS011;73271;50.882;5.984;2023-12-20T02:54:46;11.18;;;3.25;;
83354;SDS011;73271;50.882;5.984;2023-12-20T02:57:11;11.23;;;3.13;;
83354;SDS011;73271;50.882;5.984;2023-12-20T02:59:37;11.55;;;3.38;;
83354;SDS011;73271;50.882;5.984;2023-12-20T03:02:02;11.20;;;3.10;;
83354;SDS011;73271;50.882;5.984;2023-12-20T03:04:28;18.33;;;3.40;;
83354;SDS011;73271;50.882;5.984;2023-12-20T03:06:53;9.30;;;2.90;;
83354;SDS011;73271;50.882;5.984;2023-12-20T03:09:18;17.33;;;3.20;;
83354;SDS011;73271;50.882;5.984;2023-12-20T03:11:44;14.55;;;3.97;;
83354;SDS011;73271;50.882;5.984;2023-12-20T03:14:09;13.23;;;4.17;;
83354;SDS011;73271;50.882;5.984;2023-12-20T03:16:35;13.67;;;3.53;;
83354;SDS011;73271;50.882;5.984;2023-12-20T03:19:00;12.80;;;3.73;;
83354;SDS011;73271;50.882;5.984;2023-12-20T03:21:26;14.18;;;3.97;;
83354;SDS011;73271;50.882;5.984;2023-12-20T03:23:51;12.83;;;3.77;;
83354;SDS011;73271;50.882;5.984;2023-12-20T03:26:16;10.47;;;3.00;;
83354;SDS011;73271;50.882;5.984;2023-12-20T03:28:42;12.50;;;3.53;;
83354;SDS011;73271;50.882;5.984;2023-12-20T03:31:09;16.33;;;3.70;;
83354;SDS011;73271;50.882;5.984;2023-12-20T03:33:34;14.82;;;3.60;;
83354;SDS011;73271;50.882;5.984;2023-12-20T03:36:00;15.63;;;3.57;;
83354;SDS011;73271;50.882;5.984;2023-12-20T03:38:25;11.52;;;3.25;;
83354;SDS011;73271;50.882;5.984;2023-12-20T03:40:51;14.10;;;3.30;;
83354;SDS011;73271;50.882;5.984;2023-12-20T03:43:16;12.93;;;3.17;;
83354;SDS011;73271;50.882;5.984;2023-12-20T03:45:42;13.90;;;3.87;;
83354;SDS011;73271;50.882;5.984;2023-12-20T03:48:08;13.88;;;3.28;;
83354;SDS011;73271;50.882;5.984;2023-12-20T03:50:33;12.83;;;3.77;;
83354;SDS011;73271;50.882;5.984;2023-12-20T03:52:59;15.73;;;3.10;;
83354;SDS011;73271;50.882;5.984;2023-12-20T03:55:24;13.17;;;2.77;;
83354;SDS011;73271;50.882;5.984;2023-12-20T03:57:50;13.03;;;3.00;;
83354;SDS011;73271;50.882;5.984;2023-12-20T04:00:15;19.83;;;3.58;;
83354;SDS011;73271;50.882;5.984;2023-12-20T04:02:41;12.40;;;3.13;;
83354;SDS011;73271;50.882;5.984;2023-12-20T04:05:07;13.38;;;2.70;;
83354;SDS011;73271;50.882;5.984;2023-12-20T04:07:33;11.35;;;3.47;;
83354;SDS011;73271;50.882;5.984;2023-12-20T04:09:59;11.73;;;2.50;;
83354;SDS011;73271;50.882;5.984;2023-12-20T04:12:25;11.02;;;3.10;;
83354;SDS011;73271;50.882;5.984;2023-12-20T04:14:52;12.03;;;3.23;;
83354;SDS011;73271;50.882;5.984;2023-12-20T04:17:17;9.23;;;2.43;;
83354;SDS011;73271;50.882;5.984;2023-12-20T04:19:43;9.60;;;2.45;;
83354;SDS011;73271;50.882;5.984;2023-12-20T04:22:08;14.33;;;2.87;;
83354;SDS011;73271;50.882;5.984;2023-12-20T04:24:34;8.90;;;2.45;;
83354;SDS011;73271;50.882;5.984;2023-12-20T04:26:59;14.70;;;3.33;;
83354;SDS011;73271;50.882;5.984;2023-12-20T04:29:25;13.40;;;3.17;;
83354;SDS011;73271;50.882;5.984;2023-12-20T04:31:50;12.57;;;2.90;;
83354;SDS011;73271;50.882;5.984;2023-12-20T04:34:19;10.82;;;2.67;;
83354;SDS011;73271;50.882;5.984;2023-12-20T04:36:44;12.30;;;2.55;;
83354;SDS011;73271;50.882;5.984;2023-12-20T04:39:11;14.23;;;3.00;;
83354;SDS011;73271;50.882;5.984;2023-12-20T04:41:37;14.02;;;3.05;;
83354;SDS011;73271;50.882;5.984;2023-12-20T04:44:02;9.00;;;2.67;;
83354;SDS011;73271;50.882;5.984;2023-12-20T04:46:27;12.23;;;2.50;;
83354;SDS011;73271;50.882;5.984;2023-12-20T04:48:53;15.40;;;2.97;;
83354;SDS011;73271;50.882;5.984;2023-12-20T04:51:18;12.17;;;2.63;;
83354;SDS011;73271;50.882;5.984;2023-12-20T04:53:44;8.87;;;2.50;;
83354;SDS011;73271;50.882;5.984;2023-12-20T04:56:09;13.27;;;2.50;;
83354;SDS011;73271;50.882;5.984;2023-12-20T04:58:35;11.67;;;2.20;;
83354;SDS011;73271;50.882;5.984;2023-12-20T05:01:00;11.77;;;3.20;;
83354;SDS011;73271;50.882;5.984;2023-12-20T05:03:25;11.80;;;2.47;;
83354;SDS011;73271;50.882;5.984;2023-12-20T05:05:51;14.63;;;2.30;;
83354;SDS011;73271;50.882;5.984;2023-12-20T05:08:16;14.32;;;3.10;;
83354;SDS011;73271;50.882;5.984;2023-12-20T05:10:42;16.07;;;3.17;;
83354;SDS011;73271;50.882;5.984;2023-12-20T05:13:07;11.80;;;2.70;;
83354;SDS011;73271;50.882;5.984;2023-12-20T05:15:33;8.27;;;2.30;;
83354;SDS011;73271;50.882;5.984;2023-12-20T05:17:58;13.07;;;2.95;;
83354;SDS011;73271;50.882;5.984;2023-12-20T05:20:23;14.37;;;3.40;;
83354;SDS011;73271;50.882;5.984;2023-12-20T05:22:49;10.17;;;2.73;;
83354;SDS011;73271;50.882;5.984;2023-12-20T05:25:14;18.90;;;3.13;;
83354;SDS011;73271;50.882;5.984;2023-12-20T05:27:40;11.10;;;2.70;;
83354;SDS011;73271;50.882;5.984;2023-12-20T05:30:05;13.53;;;3.10;;
83354;SDS011;73271;50.882;5.984;2023-12-20T05:32:31;14.85;;;3.10;;
83354;SDS011;73271;50.882;5.984;2023-12-20T05:34:56;9.33;;;2.90;;
83354;SDS011;73271;50.882;5.984;2023-12-20T05:37:22;13.60;;;3.53;;
83354;SDS011;73271;50.882;5.984;2023-12-20T05:39:47;10.33;;;2.93;;
83354;SDS011;73271;50.882;5.984;2023-12-20T05:42:13;9.13;;;2.43;;
83354;SDS011;73271;50.882;5.984;2023-12-20T05:44:38;10.45;;;3.65;;
83354;SDS011;73271;50.882;5.984;2023-12-20T05:47:03;12.60;;;3.63;;
83354;SDS011;73271;50.882;5.984;2023-12-20T05:49:29;17.50;;;4.67;;
83354;SDS011;73271;50.882;5.984;2023-12-20T05:51:54;20.47;;;3.63;;
83354;SDS011;73271;50.882;5.984;2023-12-20T05:54:20;12.70;;;3.03;;
83354;SDS011;73271;50.882;5.984;2023-12-20T05:56:46;6.95;;;2.17;;
83354;SDS011;73271;50.882;5.984;2023-12-20T05:59:12;12.07;;;3.20;;
83354;SDS011;73271;50.882;5.984;2023-12-20T06:01:37;15.82;;;3.70;;
83354;SDS011;73271;50.882;5.984;2023-12-20T06:04:03;13.80;;;3.30;;
83354;SDS011;73271;50.882;5.984;2023-12-20T06:06:29;15.20;;;3.85;;
83354;SDS011;73271;50.882;5.984;2023-12-20T06:08:55;17.63;;;3.30;;
83354;SDS011;73271;50.882;5.984;2023-12-20T06:11:20;14.73;;;3.30;;
83354;SDS011;73271;50.882;5.984;2023-12-20T06:13:46;13.87;;;3.33;;
83354;SDS011;73271;50.882;5.984;2023-12-20T06:16:11;13.93;;;3.10;;
83354;SDS011;73271;50.882;5.984;2023-12-20T06:18:37;10.43;;;3.17;;
83354;SDS011;73271;50.882;5.984;2023-12-20T06:21:02;15.10;;;3.40;;
83354;SDS011;73271;50.882;5.984;2023-12-20T06:23:28;13.23;;;4.00;;
83354;SDS011;73271;50.882;5.984;2023-12-20T06:25:54;11.67;;;2.63;;
83354;SDS011;73271;50.882;5.984;2023-12-20T06:28:19;11.33;;;4.07;;
83354;SDS011;73271;50.882;5.984;2023-12-20T06:30:44;12.90;;;3.40;;
83354;SDS011;73271;50.882;5.984;2023-12-20T06:33:12;18.27;;;3.45;;
83354;SDS011;73271;50.882;5.984;2023-12-20T06:35:38;12.90;;;3.60;;
83354;SDS011;73271;50.882;5.984;2023-12-20T06:38:04;16.97;;;4.23;;
83354;SDS011;73271;50.882;5.984;2023-12-20T06:40:29;12.63;;;3.47;;
83354;SDS011;73271;50.882;5.984;2023-12-20T06:42:54;11.73;;;3.45;;
83354;SDS011;73271;50.882;5.984;2023-12-20T06:45:20;11.90;;;3.20;;
83354;SDS011;73271;50.882;5.984;2023-12-20T06:47:45;14.87;;;3.77;;
83354;SDS011;73271;50.882;5.984;2023-12-20T06:50:11;14.50;;;3.07;;
83354;SDS011;73271;50.882;5.984;2023-12-20T06:52:36;15.50;;;3.97;;
83354;SDS011;73271;50.882;5.984;2023-12-20T06:55:02;10.63;;;3.47;;
83354;SDS011;73271;50.882;5.984;2023-12-20T06:57:28;15.63;;;3.30;;
83354;SDS011;73271;50.882;5.984;2023-12-20T06:59:54;10.97;;;2.97;;
83354;SDS011;73271;50.882;5.984;2023-12-20T07:02:19;13.83;;;3.10;;
83354;SDS011;73271;50.882;5.984;2023-12-20T07:04:46;14.77;;;3.65;;
83354;SDS011;73271;50.882;5.984;2023-12-20T07:07:11;14.40;;;4.13;;
83354;SDS011;73271;50.882;5.984;2023-12-20T07:09:36;12.43;;;4.13;;
83354;SDS011;73271;50.882;5.984;2023-12-20T07:12:03;13.33;;;3.70;;
83354;SDS011;73271;50.882;5.984;2023-12-20T07:14:29;19.27;;;4.47;;
83354;SDS011;73271;50.882;5.984;2023-12-20T07:16:54;15.37;;;3.90;;
83354;SDS011;73271;50.882;5.984;2023-12-20T07:19:20;13.33;;;3.50;;
83354;SDS011;73271;50.882;5.984;2023-12-20T07:21:45;15.98;;;4.38;;
83354;SDS011;73271;50.882;5.984;2023-12-20T07:24:10;14.97;;;4.40;;
83354;SDS011;73271;50.882;5.984;2023-12-20T07:26:36;14.00;;;3.80;;
83354;SDS011;73271;50.882;5.984;2023-12-20T07:29:03;14.50;;;3.75;;
83354;SDS011;73271;50.882;5.984;2023-12-20T07:31:29;15.20;;;4.37;;
83354;SDS011;73271;50.882;5.984;2023-12-20T07:33:54;16.38;;;4.63;;
83354;SDS011;73271;50.882;5.984;2023-12-20T07:36:20;12.97;;;3.90;;
83354;SDS011;73271;50.882;5.984;2023-12-20T07:38:46;13.57;;;4.38;;
83354;SDS011;73271;50.882;5.984;2023-12-20T07:41:12;13.30;;;4.07;;
83354;SDS011;73271;50.882;5.984;2023-12-20T07:43:37;13.10;;;3.80;;
83354;SDS011;73271;50.882;5.984;2023-12-20T07:46:07;12.02;;;4.45;;
83354;SDS011;73271;50.882;5.984;2023-12-20T07:48:37;13.52;;;4.07;;
83354;SDS011;73271;50.882;5.984;2023-12-20T07:51:03;11.80;;;3.90;;
83354;SDS011;73271;50.882;5.984;2023-12-20T07:53:29;10.38;;;3.38;;
83354;SDS011;73271;50.882;5.984;2023-12-20T07:55:54;15.73;;;4.17;;
83354;SDS011;73271;50.882;5.984;2023-12-20T07:58:20;13.20;;;3.53;;
83354;SDS011;73271;50.882;5.984;2023-12-20T08:00:46;14.17;;;4.13;;
83354;SDS011;73271;50.882;5.984;2023-12-20T08:03:11;13.98;;;3.83;;
83354;SDS011;73271;50.882;5.984;2023-12-20T08:05:37;9.30;;;3.10;;
83354;SDS011;73271;50.882;5.984;2023-12-20T08:08:05;11.32;;;3.10;;
83354;SDS011;73271;50.882;5.984;2023-12-20T08:10:31;8.93;;;3.03;;
83354;SDS011;73271;50.882;5.984;2023-12-20T08:12:56;10.23;;;3.63;;
83354;SDS011;73271;50.882;5.984;2023-12-20T08:15:22;16.17;;;4.27;;
83354;SDS011;73271;50.882;5.984;2023-12-20T08:17:47;11.70;;;3.47;;
83354;SDS011;73271;50.882;5.984;2023-12-20T08:20:13;15.80;;;3.73;;
83354;SDS011;73271;50.882;5.984;2023-12-20T08:22:38;14.70;;;3.67;;
83354;SDS011;73271;50.882;5.984;2023-12-20T08:25:04;14.00;;;3.70;;
83354;SDS011;73271;50.882;5.984;2023-12-20T08:27:29;12.15;;;4.38;;
83354;SDS011;73271;50.882;5.984;2023-12-20T08:29:56;10.05;;;3.65;;
83354;SDS011;73271;50.882;5.984;2023-12-20T08:32:24;11.37;;;3.70;;
83354;SDS011;73271;50.882;5.984;2023-12-20T08:34:51;12.27;;;4.18;;
83354;SDS011;73271;50.882;5.984;2023-12-20T08:37:16;8.20;;;3.07;;
83354;SDS011;73271;50.882;5.984;2023-12-20T08:39:42;14.23;;;3.40;;
83354;SDS011;73271;50.882;5.984;2023-12-20T08:42:09;41.83;;;17.67;;
83354;SDS011;73271;50.882;5.984;2023-12-20T08:44:34;51.93;;;27.67;;
83354;SDS011;73271;50.882;5.984;2023-12-20T08:47:00;177.95;;;77.05;;
83354;SDS011;73271;50.882;5.984;2023-12-20T08:49:25;289.73;;;143.47;;
83354;SDS011;73271;50.882;5.984;2023-12-20T08:51:51;251.40;;;130.53;;
83354;SDS011;73271;50.882;5.984;2023-12-20T08:54:16;160.90;;;77.07;;
83354;SDS011;73271;50.882;5.984;2023-12-20T08:56:42;326.25;;;167.98;;
83354;SDS011;73271;50.882;5.984;2023-12-20T08:59:08;303.02;;;193.00;;
83354;SDS011;73271;50.882;5.984;2023-12-20T09:01:34;221.20;;;136.57;;
83354;SDS011;73271;50.882;5.984;2023-12-20T09:04:00;92.63;;;64.63;;
83354;SDS011;73271;50.882;5.984;2023-12-20T09:06:25;103.87;;;93.53;;
83354;SDS011;73271;50.882;5.984;2023-12-20T09:08:51;49.43;;;44.93;;
83354;SDS011;73271;50.882;5.984;2023-12-20T09:11:16;18.50;;;14.75;;
83354;SDS011;73271;50.882;5.984;2023-12-20T09:13:42;15.32;;;7.40;;
83354;SDS011;73271;50.882;5.984;2023-12-20T09:16:09;19.60;;;6.67;;
83354;SDS011;73271;50.882;5.984;2023-12-20T09:18:34;15.05;;;9.25;;
83354;SDS011;73271;50.882;5.984;2023-12-20T09:21:00;19.50;;;14.63;;
83354;SDS011;73271;50.882;5.984;2023-12-20T09:23:25;15.67;;;9.40;;
83354;SDS011;73271;50.882;5.984;2023-12-20T09:25:51;17.17;;;12.32;;
83354;SDS011;73271;50.882;5.984;2023-12-20T09:28:16;22.90;;;16.13;;
83354;SDS011;73271;50.882;5.984;2023-12-20T09:30:42;14.67;;;8.30;;
83354;SDS011;73271;50.882;5.984;2023-12-20T09:33:07;11.17;;;4.40;;
83354;SDS011;73271;50.882;5.984;2023-12-20T09:35:32;17.43;;;4.40;;
83354;SDS011;73271;50.882;5.984;2023-12-20T09:37:58;12.83;;;7.20;;
83354;SDS011;73271;50.882;5.984;2023-12-20T09:40:23;93.03;;;83.33;;
83354;SDS011;73271;50.882;5.984;2023-12-20T09:42:58;37.30;;;30.95;;
83354;SDS011;73271;50.882;5.984;2023-12-20T09:45:28;22.55;;;15.32;;
83354;SDS011;73271;50.882;5.984;2023-12-20T09:47:56;19.30;;;10.53;;
83354;SDS011;73271;50.882;5.984;2023-12-20T09:50:23;14.15;;;5.90;;
83354;SDS011;73271;50.882;5.984;2023-12-20T09:52:49;11.80;;;3.97;;
83354;SDS011;73271;50.882;5.984;2023-12-20T09:55:19;28.75;;;24.88;;
83354;SDS011;73271;50.882;5.984;2023-12-20T09:57:46;13.03;;;8.63;;
83354;SDS011;73271;50.882;5.984;2023-12-20T10:00:14;9.98;;;3.97;;
83354;SDS011;73271;50.882;5.984;2023-12-20T10:02:59;11.40;;;4.55;;
83354;SDS011;73271;50.882;5.984;2023-12-20T10:05:29;10.60;;;3.33;;
83354;SDS011;73271;50.882;5.984;2023-12-20T10:07:59;9.85;;;3.72;;
83354;SDS011;73271;50.882;5.984;2023-12-20T10:10:25;11.97;;;3.20;;
83354;SDS011;73271;50.882;5.984;2023-12-20T10:13:07;10.68;;;3.40;;
83354;SDS011;73271;50.882;5.984;2023-12-20T10:15:35;10.32;;;3.55;;
83354;SDS011;73271;50.882;5.984;2023-12-20T10:18:02;11.60;;;3.15;;
83354;SDS011;73271;50.882;5.984;2023-12-20T10:20:28;12.93;;;3.53;;
83354;SDS011;73271;50.882;5.984;2023-12-20T10:22:54;10.80;;;5.30;;
83354;SDS011;73271;50.882;5.984;2023-12-20T10:25:24;8.18;;;3.50;;
83354;SDS011;73271;50.882;5.984;2023-12-20T10:27:50;11.15;;;3.33;;
83354;SDS011;73271;50.882;5.984;2023-12-20T10:30:33;17.38;;;11.75;;
83354;SDS011;73271;50.882;5.984;2023-12-20T10:32:59;21.40;;;9.73;;
83354;SDS011;73271;50.882;5.984;2023-12-20T10:35:24;13.15;;;4.10;;
83354;SDS011;73271;50.882;5.984;2023-12-20T10:37:50;9.47;;;3.80;;
83354;SDS011;73271;50.882;5.984;2023-12-20T10:40:20;14.25;;;4.70;;
83354;SDS011;73271;50.882;5.984;2023-12-20T10:42:46;10.43;;;3.63;;
83354;SDS011;73271;50.882;5.984;2023-12-20T10:45:12;11.00;;;3.50;;
83354;SDS011;73271;50.882;5.984;2023-12-20T10:47:37;13.60;;;3.50;;
83354;SDS011;73271;50.882;5.984;2023-12-20T10:50:05;8.95;;;2.90;;
83354;SDS011;73271;50.882;5.984;2023-12-20T10:52:33;9.52;;;2.60;;
83354;SDS011;73271;50.882;5.984;2023-12-20T10:55:00;8.40;;;2.85;;
83354;SDS011;73271;50.882;5.984;2023-12-20T10:57:26;11.80;;;3.03;;
83354;SDS011;73271;50.882;5.984;2023-12-20T10:59:53;11.98;;;3.15;;
83354;SDS011;73271;50.882;5.984;2023-12-20T11:02:19;12.77;;;2.90;;
83354;SDS011;73271;50.882;5.984;2023-12-20T11:07:35;12.57;;;3.25;;
83354;SDS011;73271;50.882;5.984;2023-12-20T11:13:10;8.48;;;3.00;;
83354;SDS011;73271;50.882;5.984;2023-12-20T11:15:42;12.87;;;2.33;;
83354;SDS011;73271;50.882;5.984;2023-12-20T11:18:08;7.72;;;2.78;;
83354;SDS011;73271;50.882;5.984;2023-12-20T11:20:37;14.57;;;3.08;;
83354;SDS011;73271;50.882;5.984;2023-12-20T11:23:05;12.32;;;2.85;;
83354;SDS011;73271;50.882;5.984;2023-12-20T11:28:26;12.00;;;2.83;;
83354;SDS011;73271;50.882;5.984;2023-12-20T11:30:52;8.65;;;3.10;;
83354;SDS011;73271;50.882;5.984;2023-12-20T11:33:26;7.03;;;2.90;;
83354;SDS011;73271;50.882;5.984;2023-12-20T11:35:57;11.73;;;3.38;;
83354;SDS011;73271;50.882;5.984;2023-12-20T11:38:24;15.00;;;3.60;;
83354;SDS011;73271;50.882;5.984;2023-12-20T11:40:50;15.57;;;4.20;;
83354;SDS011;73271;50.882;5.984;2023-12-20T11:43:31;46.75;;;39.58;;
83354;SDS011;73271;50.882;5.984;2023-12-20T11:46:03;34.57;;;23.33;;
83354;SDS011;73271;50.882;5.984;2023-12-20T11:48:39;39.95;;;26.75;;
83354;SDS011;73271;50.882;5.984;2023-12-20T11:51:09;30.67;;;18.75;;
83354;SDS011;73271;50.882;5.984;2023-12-20T11:53:36;35.78;;;24.30;;
83354;SDS011;73271;50.882;5.984;2023-12-20T11:56:02;18.97;;;14.33;;
83354;SDS011;73271;50.882;5.984;2023-12-20T11:58:28;19.15;;;11.38;;
83354;SDS011;73271;50.882;5.984;2023-12-20T12:00:55;21.88;;;15.57;;
83354;SDS011;73271;50.882;5.984;2023-12-20T12:03:20;14.15;;;7.03;;
83354;SDS011;73271;50.882;5.984;2023-12-20T12:05:47;13.40;;;4.80;;
83354;SDS011;73271;50.882;5.984;2023-12-20T12:08:13;14.48;;;4.75;;
83354;SDS011;73271;50.882;5.984;2023-12-20T12:10:41;12.60;;;3.50;;
83354;SDS011;73271;50.882;5.984;2023-12-20T12:13:06;9.73;;;3.47;;
83354;SDS011;73271;50.882;5.984;2023-12-20T12:15:32;16.03;;;3.63;;
83354;SDS011;73271;50.882;5.984;2023-12-20T12:17:58;15.10;;;5.47;;
83354;SDS011;73271;50.882;5.984;2023-12-20T12:20:24;8.88;;;2.80;;
83354;SDS011;73271;50.882;5.984;2023-12-20T12:23:05;12.32;;;2.60;;
83354;SDS011;73271;50.882;5.984;2023-12-20T12:25:32;11.55;;;3.45;;
83354;SDS011;73271;50.882;5.984;2023-12-20T12:28:00;13.07;;;3.60;;
83354;SDS011;73271;50.882;5.984;2023-12-20T12:30:26;10.43;;;3.50;;
83354;SDS011;73271;50.882;5.984;2023-12-20T12:32:52;12.82;;;3.63;;
83354;SDS011;73271;50.882;5.984;2023-12-20T12:35:18;12.02;;;4.82;;
83354;SDS011;73271;50.882;5.984;2023-12-20T12:37:45;14.57;;;5.43;;
83354;SDS011;73271;50.882;5.984;2023-12-20T12:40:11;15.73;;;3.78;;
83354;SDS011;73271;50.882;5.984;2023-12-20T12:42:38;12.05;;;3.70;;
83354;SDS011;73271;50.882;5.984;2023-12-20T12:45:05;13.30;;;4.20;;
83354;SDS011;73271;50.882;5.984;2023-12-20T12:47:31;12.50;;;4.60;;
83354;SDS011;73271;50.882;5.984;2023-12-20T12:49:57;17.50;;;4.70;;
83354;SDS011;73271;50.882;5.984;2023-12-20T12:52:23;13.23;;;5.28;;
83354;SDS011;73271;50.882;5.984;2023-12-20T12:54:48;10.00;;;3.60;;
83354;SDS011;73271;50.882;5.984;2023-12-20T12:57:14;12.73;;;3.90;;
83354;SDS011;73271;50.882;5.984;2023-12-20T12:59:41;13.75;;;4.00;;
83354;SDS011;73271;50.882;5.984;2023-12-20T13:02:08;10.10;;;4.47;;
83354;SDS011;73271;50.882;5.984;2023-12-20T13:04:33;12.30;;;3.83;;
83354;SDS011;73271;50.882;5.984;2023-12-20T13:06:59;14.02;;;4.57;;
83354;SDS011;73271;50.882;5.984;2023-12-20T13:09:24;10.13;;;3.70;;
83354;SDS011;73271;50.882;5.984;2023-12-20T13:11:50;13.43;;;4.33;;
83354;SDS011;73271;50.882;5.984;2023-12-20T13:14:15;8.67;;;3.53;;
83354;SDS011;73271;50.882;5.984;2023-12-20T13:16:41;13.63;;;5.22;;
83354;SDS011;73271;50.882;5.984;2023-12-20T13:19:07;12.93;;;4.83;;
83354;SDS011;73271;50.882;5.984;2023-12-20T13:21:32;13.73;;;3.80;;
83354;SDS011;73271;50.882;5.984;2023-12-20T13:23:58;12.32;;;5.18;;
83354;SDS011;73271;50.882;5.984;2023-12-20T13:26:24;13.87;;;5.70;;
83354;SDS011;73271;50.882;5.984;2023-12-20T13:28:49;17.17;;;4.45;;
83354;SDS011;73271;50.882;5.984;2023-12-20T13:31:15;11.43;;;6.17;;
83354;SDS011;73271;50.882;5.984;2023-12-20T13:33:40;12.90;;;4.00;;
83354;SDS011;73271;50.882;5.984;2023-12-20T13:36:06;11.63;;;3.87;;
83354;SDS011;73271;50.882;5.984;2023-12-20T13:38:31;13.77;;;3.85;;
83354;SDS011;73271;50.882;5.984;2023-12-20T13:40:57;12.97;;;4.40;;
83354;SDS011;73271;50.882;5.984;2023-12-20T13:43:24;11.35;;;4.28;;
83354;SDS011;73271;50.882;5.984;2023-12-20T13:45:50;12.05;;;4.45;;
83354;SDS011;73271;50.882;5.984;2023-12-20T13:48:15;9.73;;;3.50;;
83354;SDS011;73271;50.882;5.984;2023-12-20T13:50:42;14.70;;;3.67;;
83354;SDS011;73271;50.882;5.984;2023-12-20T13:53:07;13.05;;;3.50;;
83354;SDS011;73271;50.882;5.984;2023-12-20T13:55:33;7.97;;;3.13;;
83354;SDS011;73271;50.882;5.984;2023-12-20T13:57:58;9.93;;;3.40;;
83354;SDS011;73271;50.882;5.984;2023-12-20T14:00:24;14.18;;;3.78;;
83354;SDS011;73271;50.882;5.984;2023-12-20T14:02:50;11.93;;;4.13;;
83354;SDS011;73271;50.882;5.984;2023-12-20T14:05:16;31.53;;;13.13;;
83354;SDS011;73271;50.882;5.984;2023-12-20T14:07:45;51.05;;;24.98;;
83354;SDS011;73271;50.882;5.984;2023-12-20T14:10:11;31.87;;;16.60;;
83354;SDS011;73271;50.882;5.984;2023-12-20T14:12:40;92.85;;;39.25;;
83354;SDS011;73271;50.882;5.984;2023-12-20T14:15:06;41.33;;;19.40;;
83354;SDS011;73271;50.882;5.984;2023-12-20T14:17:36;96.30;;;38.88;;
83354;SDS011;73271;50.882;5.984;2023-12-20T14:20:05;108.75;;;43.22;;
83354;SDS011;73271;50.882;5.984;2023-12-20T14:22:32;96.63;;;42.42;;
83354;SDS011;73271;50.882;5.984;2023-12-20T14:24:57;214.27;;;89.33;;
83354;SDS011;73271;50.882;5.984;2023-12-20T14:27:23;97.47;;;39.80;;
83354;SDS011;73271;50.882;5.984;2023-12-20T14:29:51;112.05;;;47.15;;
83354;SDS011;73271;50.882;5.984;2023-12-20T14:32:17;132.17;;;54.50;;
83354;SDS011;73271;50.882;5.984;2023-12-20T14:34:42;163.37;;;71.40;;
83354;SDS011;73271;50.882;5.984;2023-12-20T14:37:07;95.37;;;43.70;;